createdAt,value
2019-05-18T00:00:52.852Z,12.60
2019-05-18T00:05:59.372Z,12.50
2019-05-18T00:11:04.343Z,12.50
2019-05-18T00:16:09.698Z,12.50
2019-05-18T00:21:14.642Z,12.50
2019-05-18T00:26:19.655Z,12.50
2019-05-18T00:31:24.559Z,12.60
2019-05-18T00:36:29.931Z,12.50
2019-05-18T00:41:36.859Z,12.50
2019-05-18T00:46:42.016Z,12.30
2019-05-18T00:51:47.631Z,12.40
2019-05-18T00:56:52.718Z,12.40
2019-05-18T01:01:58.737Z,12.10
2019-05-18T01:07:03.555Z,12.20
2019-05-18T01:12:08.466Z,12.10
2019-05-18T01:17:16.721Z,12.30
2019-05-18T01:22:26.751Z,12.20
2019-05-18T01:27:33.631Z,12.20
2019-05-18T01:32:39.735Z,12.00
2019-05-18T01:37:44.853Z,11.90
2019-05-18T01:42:50.763Z,12.00
2019-05-18T01:48:12.224Z,12.00
2019-05-18T01:53:05.847Z,12.00
2019-05-18T01:58:10.667Z,11.90
2019-05-18T02:03:15.434Z,12.00
2019-05-18T02:08:20.286Z,12.00
2019-05-18T02:13:27.197Z,12.00
2019-05-18T02:18:34.359Z,12.10
2019-05-18T02:23:40.061Z,11.80
2019-05-18T02:28:44.946Z,11.60
2019-05-18T02:33:50.438Z,11.70
2019-05-18T02:38:55.411Z,11.70
2019-05-18T02:44:00.361Z,11.80
2019-05-18T02:49:06.992Z,11.70
2019-05-18T02:54:12.008Z,11.60
2019-05-18T02:59:16.994Z,11.60
2019-05-18T03:04:23.120Z,11.80
2019-05-18T03:09:28.339Z,11.80
2019-05-18T03:14:33.291Z,11.80
2019-05-18T03:19:41.232Z,11.70
2019-05-18T03:24:46.211Z,11.40
2019-05-18T03:29:54.009Z,11.40
2019-05-18T03:34:59.080Z,11.50
2019-05-18T03:40:04.291Z,11.50
2019-05-18T03:45:09.351Z,11.20
2019-05-18T03:50:14.298Z,11.50
2019-05-18T03:55:21.289Z,11.20
2019-05-18T04:00:28.684Z,11.30
2019-05-18T04:05:33.507Z,11.40
2019-05-18T04:10:38.790Z,11.40
2019-05-18T04:15:43.596Z,11.40
2019-05-18T04:20:48.720Z,11.40
2019-05-18T04:25:57.429Z,11.50
2019-05-18T04:31:05.372Z,11.50
2019-05-18T04:36:10.394Z,11.50
2019-05-18T04:41:15.351Z,11.50
2019-05-18T04:46:24.593Z,11.50
2019-05-18T04:51:30.428Z,11.60
2019-05-18T04:56:36.753Z,11.70
2019-05-18T05:01:41.581Z,11.90
2019-05-18T05:06:46.618Z,11.70
2019-05-18T05:11:51.452Z,11.70
2019-05-18T05:16:57.264Z,11.80
2019-05-18T05:22:02.069Z,11.90
2019-05-18T05:27:10.483Z,12.00
2019-05-18T05:32:15.237Z,12.00
2019-05-18T05:37:23.406Z,11.80
2019-05-18T05:42:28.766Z,12.00
2019-05-18T05:47:34.083Z,12.10
2019-05-18T05:52:45.295Z,12.20
2019-05-18T05:57:50.436Z,12.40
2019-05-18T06:02:57.338Z,12.30
2019-05-18T06:08:02.168Z,12.30
2019-05-18T06:13:08.270Z,12.40
2019-05-18T06:18:13.480Z,12.40
2019-05-18T06:23:18.357Z,12.40
2019-05-18T06:28:23.619Z,12.50
2019-05-18T06:33:28.748Z,12.60
2019-05-18T06:38:33.818Z,12.60
2019-05-18T06:43:41.080Z,12.80
2019-05-18T06:48:46.408Z,12.80
2019-05-18T06:53:51.450Z,13.00
2019-05-18T06:58:59.459Z,13.30
2019-05-18T07:04:06.768Z,13.50
2019-05-18T07:09:14.118Z,13.80
2019-05-18T07:14:25.715Z,14.00
2019-05-18T07:19:26.203Z,14.30
2019-05-18T07:24:31.338Z,14.30
2019-05-18T07:29:36.699Z,14.70
2019-05-18T07:34:43.470Z,14.70
2019-05-18T07:39:48.242Z,14.60
2019-05-18T07:44:53.339Z,14.50
2019-05-18T07:49:58.423Z,14.90
2019-05-18T07:55:03.881Z,14.90
2019-05-18T08:00:09.681Z,15.10
2019-05-18T08:05:15.107Z,15.60
2019-05-18T08:10:34.117Z,15.80
2019-05-18T08:15:39.597Z,16.30
2019-05-18T08:20:44.458Z,16.60
2019-05-18T08:25:52.148Z,16.90
2019-05-18T08:30:57.222Z,17.20
2019-05-18T08:36:02.303Z,17.50
2019-05-18T08:41:08.470Z,17.40
2019-05-18T08:46:13.507Z,17.70
2019-05-18T08:51:18.704Z,17.80
2019-05-18T08:56:23.647Z,17.70
2019-05-18T09:01:28.659Z,17.90
2019-05-18T09:06:33.538Z,18.00
2019-05-18T09:11:38.569Z,17.90
2019-05-18T09:16:43.801Z,18.40
2019-05-18T09:21:48.697Z,18.30
2019-05-18T09:26:53.651Z,18.20
2019-05-18T09:31:58.670Z,18.30
2019-05-18T09:37:03.668Z,17.90
2019-05-18T09:42:08.508Z,17.90
2019-05-18T09:47:13.545Z,17.90
2019-05-18T09:52:18.796Z,18.10
2019-05-18T09:57:23.624Z,18.10
2019-05-18T10:02:28.475Z,18.50
2019-05-18T10:07:33.365Z,18.60
2019-05-18T10:12:38.272Z,18.80
2019-05-18T10:17:43.355Z,19.00
2019-05-18T10:22:59.229Z,19.00
2019-05-18T10:27:55.484Z,19.40
2019-05-18T10:33:00.665Z,19.10
2019-05-18T10:38:05.519Z,18.90
2019-05-18T10:43:10.730Z,19.00
2019-05-18T10:48:15.995Z,18.80
2019-05-18T10:53:28.666Z,18.60
2019-05-18T10:58:28.052Z,18.70
2019-05-18T11:03:33.100Z,18.60
2019-05-18T11:08:38.542Z,18.90
2019-05-18T11:13:44.867Z,18.90
2019-05-18T11:18:49.860Z,18.60
2019-05-18T11:23:54.837Z,18.70
2019-05-18T11:28:59.645Z,19.20
2019-05-18T13:00:49.316Z,20.30
2019-05-18T13:05:54.245Z,20.30
2019-05-18T13:10:59.465Z,20.20
2019-05-18T13:16:06.121Z,20.30
2019-05-18T13:36:24.946Z,20.00
2019-05-18T13:46:35.114Z,20.00
2019-05-18T14:01:50.254Z,19.50
2019-05-18T14:06:56.245Z,19.60
2019-05-18T14:12:02.272Z,19.60
2019-05-18T14:17:07.553Z,19.60
2019-05-18T17:50:24.595Z,16.40
2019-05-18T17:55:29.700Z,16.40
2019-05-18T18:00:35.209Z,16.50
2019-05-18T18:05:40.158Z,16.50
2019-05-18T18:10:45.591Z,16.40
2019-05-18T18:15:50.777Z,16.50
2019-05-18T18:20:55.914Z,16.40
2019-05-18T18:26:01.020Z,16.40
2019-05-18T18:31:06.865Z,16.40
2019-05-18T18:36:12.156Z,16.30
2019-05-18T18:41:17.333Z,16.20
2019-05-18T18:46:22.659Z,16.30
2019-05-18T18:51:27.722Z,16.10
2019-05-18T18:56:32.707Z,16.10
2019-05-18T19:01:38.433Z,16.00
2019-05-18T19:06:43.843Z,15.90
2019-05-18T19:11:49.011Z,15.70
2019-05-18T19:16:53.989Z,15.70
2019-05-18T19:21:59.322Z,15.60
2019-05-18T19:27:04.357Z,15.60
2019-05-18T19:32:09.603Z,15.50
2019-05-18T19:37:15.653Z,15.50
2019-05-18T19:42:20.898Z,15.50
2019-05-18T19:47:26.147Z,15.60
2019-05-18T19:52:31.288Z,15.50
2019-05-18T19:57:37.205Z,15.50
2019-05-18T20:02:43.168Z,15.50
2019-05-18T20:07:48.037Z,15.40
2019-05-18T20:12:53.206Z,15.30
2019-05-18T20:28:07.083Z,15.10
2019-05-18T20:33:12.637Z,15.00
2019-05-18T20:38:17.571Z,15.10
2019-05-18T20:43:23.059Z,15.00
2019-05-18T20:48:27.928Z,15.00
2019-05-18T20:53:33.321Z,14.90
2019-05-18T20:58:40.591Z,14.90
2019-05-18T21:03:45.911Z,14.90
2019-05-18T21:08:51.315Z,14.90
2019-05-18T21:13:57.791Z,14.70
2019-05-18T21:19:04.767Z,14.70
2019-05-18T21:24:10.259Z,14.70
2019-05-18T21:29:17.881Z,14.50
2019-05-18T21:34:23.462Z,14.50
2019-05-18T21:39:28.674Z,14.50
2019-05-18T21:44:34.381Z,14.50
2019-05-18T21:49:39.243Z,14.50
2019-05-18T21:54:44.718Z,14.50
2019-05-18T21:59:49.979Z,14.60
2019-05-18T22:04:57.670Z,14.70
2019-05-18T22:10:03.727Z,14.70
2019-05-18T22:15:08.980Z,14.60
2019-05-18T22:20:14.238Z,14.50
2019-05-18T22:25:19.086Z,14.60
2019-05-18T22:30:24.753Z,14.60
2019-05-18T22:35:30.365Z,14.60
2019-05-18T22:40:35.336Z,14.60
2019-05-18T22:45:42.917Z,14.50
2019-05-18T22:50:48.241Z,14.50
2019-05-18T22:55:53.303Z,14.60
2019-05-18T23:00:58.088Z,14.60
2019-05-18T23:06:04.741Z,14.60
2019-05-18T23:11:09.912Z,14.60
2019-05-18T23:16:15.303Z,14.70
2019-05-18T23:21:20.671Z,14.70
2019-05-18T23:26:25.928Z,14.70
2019-05-18T23:31:32.097Z,14.80
2019-05-18T23:36:37.574Z,14.80
2019-05-18T23:41:43.940Z,14.70
2019-05-18T23:46:49.542Z,14.60
